createdAt,value
2019-02-18T00:04:33.280Z,10.67
2019-02-18T00:07:16.153Z,10.13
2019-02-18T00:12:50.051Z,9.60
2019-02-18T00:15:26.323Z,13.77
2019-02-18T00:17:57.308Z,9.50
2019-02-18T00:20:39.935Z,11.40
2019-02-18T00:23:18.685Z,15.33
2019-02-18T00:25:49.309Z,9.80
2019-02-18T00:34:13.255Z,10.23
2019-02-18T00:36:45.268Z,9.80
2019-02-18T00:39:15.854Z,9.93
2019-02-18T00:41:56.741Z,11.47
2019-02-18T00:44:38.572Z,11.10
2019-02-18T00:47:09.175Z,10.43
2019-02-18T00:49:41.989Z,10.07
2019-02-18T00:52:23.707Z,9.77
2019-02-18T00:55:05.501Z,10.43
2019-02-18T00:57:37.734Z,8.30
2019-02-18T01:00:09.783Z,8.23
2019-02-18T01:02:59.817Z,8.23
2019-02-18T01:05:30.420Z,9.17
2019-02-18T01:08:01.008Z,9.37
2019-02-18T01:10:50.934Z,10.07
2019-02-18T01:13:21.565Z,10.30
2019-02-18T01:15:52.193Z,8.80
2019-02-18T01:18:42.091Z,8.20
2019-02-18T01:21:12.712Z,8.90
2019-02-18T01:23:43.335Z,9.93
2019-02-18T01:26:33.198Z,11.13
2019-02-18T01:29:22.573Z,9.20
2019-02-18T01:32:12.452Z,8.87
2019-02-18T01:34:43.085Z,9.40
2019-02-18T01:37:14.005Z,9.53
2019-02-18T01:42:34.340Z,10.57
2019-02-18T01:45:07.700Z,10.00
2019-02-18T01:47:38.380Z,9.77
2019-02-18T01:50:28.313Z,8.57
2019-02-18T01:52:59.266Z,9.93
2019-02-18T01:55:32.408Z,11.80
2019-02-18T01:58:22.208Z,8.83
2019-02-18T02:00:53.212Z,8.57
2019-02-18T02:03:25.286Z,8.60
2019-02-18T02:06:26.800Z,8.83
2019-02-18T02:08:58.491Z,10.13
2019-02-18T02:11:29.468Z,10.73
2019-02-18T02:14:11.384Z,8.70
2019-02-18T02:16:53.981Z,7.57
2019-02-18T02:19:24.498Z,10.37
2019-02-18T02:22:09.311Z,8.20
2019-02-18T02:24:39.919Z,12.37
2019-02-18T02:27:12.020Z,9.70
2019-02-18T02:29:54.392Z,9.20
2019-02-18T02:32:24.971Z,8.60
2019-02-18T02:34:55.452Z,8.77
2019-02-18T02:37:37.333Z,9.37
2019-02-18T02:40:19.939Z,9.00
2019-02-18T02:42:51.491Z,10.13
2019-02-18T02:45:22.422Z,9.47
2019-02-18T02:47:54.552Z,10.87
2019-02-18T02:50:25.145Z,8.17
2019-02-18T02:52:55.629Z,8.30
2019-02-18T02:55:38.235Z,10.90
2019-02-18T02:58:20.760Z,9.37
2019-02-18T03:00:51.299Z,9.17
2019-02-18T03:03:21.813Z,8.73
2019-02-18T03:06:04.252Z,12.03
2019-02-18T03:08:45.932Z,9.13
2019-02-18T03:11:16.488Z,10.00
2019-02-18T03:17:10.380Z,11.70
2019-02-18T03:20:20.550Z,13.47
2019-02-18T03:22:51.151Z,9.00
2019-02-18T03:28:36.125Z,12.73
2019-02-18T03:31:20.053Z,10.43
2019-02-18T03:33:55.024Z,11.07
2019-02-18T03:36:25.668Z,9.13
2019-02-18T03:39:15.513Z,9.67
2019-02-18T03:44:48.663Z,10.27
2019-02-18T03:47:31.080Z,8.73
2019-02-18T03:50:02.611Z,8.53
2019-02-18T03:52:33.106Z,10.73
2019-02-18T03:55:15.222Z,10.23
2019-02-18T03:57:57.497Z,9.50
2019-02-18T04:00:28.422Z,10.80
2019-02-18T04:02:58.921Z,9.43
2019-02-18T04:05:49.367Z,10.80
2019-02-18T04:08:19.942Z,10.60
2019-02-18T04:10:50.923Z,9.57
2019-02-18T04:13:21.466Z,8.60
2019-02-18T04:15:52.283Z,10.10
2019-02-18T04:18:22.964Z,10.63
2019-02-18T04:20:53.829Z,10.97
2019-02-18T04:26:55.572Z,14.17
2019-02-18T04:29:37.782Z,14.20
2019-02-18T04:32:19.625Z,12.70
2019-02-18T04:34:50.170Z,13.13
2019-02-18T04:37:20.836Z,13.03
2019-02-18T04:40:02.637Z,11.83
2019-02-18T04:42:44.684Z,13.37
2019-02-18T04:45:16.474Z,14.10
2019-02-18T04:47:46.961Z,17.27
2019-02-18T04:50:36.874Z,18.90
2019-02-18T04:53:07.539Z,16.30
2019-02-18T04:55:38.406Z,15.87
2019-02-18T04:58:28.387Z,15.50
2019-02-18T05:00:58.947Z,12.73
2019-02-18T05:06:25.511Z,13.83
2019-02-18T05:09:05.043Z,12.17
2019-02-18T05:11:36.013Z,15.37
2019-02-18T05:14:26.048Z,14.40
2019-02-18T05:16:56.659Z,17.50
2019-02-18T05:19:46.261Z,11.97
2019-02-18T05:22:17.236Z,11.73
2019-02-18T05:24:50.053Z,13.87
2019-02-18T05:27:33.517Z,16.93
2019-02-18T05:30:16.069Z,15.07
2019-02-18T05:32:46.594Z,13.73
2019-02-18T05:35:38.359Z,14.87
2019-02-18T05:38:20.670Z,15.03
2019-02-18T05:40:51.317Z,15.00
2019-02-18T05:43:23.927Z,13.33
2019-02-18T05:46:13.715Z,12.40
2019-02-18T05:48:44.448Z,13.27
2019-02-18T05:51:37.587Z,13.90
2019-02-18T05:54:19.303Z,12.67
2019-02-18T05:56:50.257Z,13.70
2019-02-18T05:59:23.427Z,12.50
2019-02-18T06:02:06.056Z,14.93
2019-02-18T06:04:57.962Z,15.47
2019-02-18T06:07:28.521Z,15.83
2019-02-18T06:10:14.239Z,10.37
2019-02-18T06:12:47.477Z,12.37
2019-02-18T06:18:26.653Z,14.57
2019-02-18T06:21:16.780Z,17.67
2019-02-18T06:26:49.686Z,16.30
2019-02-18T06:29:32.256Z,15.90
2019-02-18T06:32:03.284Z,12.67
2019-02-18T06:34:57.056Z,14.50
2019-02-18T06:37:27.546Z,12.87
2019-02-18T06:39:58.156Z,11.70
2019-02-18T06:48:33.833Z,11.57
2019-02-18T06:51:04.364Z,11.00
2019-02-18T06:53:41.317Z,12.10
2019-02-18T06:56:11.843Z,12.07
2019-02-18T06:58:49.527Z,9.73
2019-02-18T07:01:59.512Z,11.53
2019-02-18T07:08:05.966Z,12.83
2019-02-18T07:10:41.331Z,10.93
2019-02-18T07:13:11.973Z,11.40
2019-02-18T07:16:01.584Z,13.13
2019-02-18T07:18:32.099Z,10.87
2019-02-18T07:21:02.741Z,14.23
2019-02-18T07:23:52.622Z,11.17
2019-02-18T07:26:44.227Z,24.43
2019-02-18T07:29:17.353Z,25.47
2019-02-18T07:32:00.941Z,25.97
2019-02-18T07:34:43.425Z,18.30
2019-02-18T07:40:23.696Z,14.83
2019-02-18T07:43:05.349Z,16.33
2019-02-18T07:48:38.627Z,14.10
2019-02-18T07:51:22.711Z,17.17
2019-02-18T07:54:04.466Z,16.73
2019-02-18T07:56:56.380Z,15.33
2019-02-18T07:59:26.973Z,16.40
2019-02-18T08:01:57.551Z,14.70
2019-02-18T08:04:47.383Z,16.40
2019-02-18T08:07:56.016Z,18.67
2019-02-18T08:11:04.725Z,13.83
2019-02-18T08:13:35.675Z,17.40
2019-02-18T08:16:31.774Z,14.90
2019-02-18T08:19:16.620Z,13.33
2019-02-18T08:22:23.390Z,13.60
2019-02-18T08:24:56.568Z,11.43
2019-02-18T08:27:46.370Z,13.87
2019-02-18T08:33:41.256Z,11.80
2019-02-18T08:36:11.931Z,10.90
2019-02-18T08:38:42.525Z,12.57
2019-02-18T08:41:33.534Z,10.73
2019-02-18T08:44:04.082Z,12.53
2019-02-18T08:46:34.525Z,10.10
2019-02-18T08:49:17.361Z,10.53
2019-02-18T08:51:59.855Z,8.97
2019-02-18T08:57:46.711Z,7.03
2019-02-18T09:09:13.435Z,7.13
2019-02-18T09:11:44.065Z,6.63
2019-02-18T09:18:09.238Z,7.40
2019-02-18T09:20:39.864Z,8.77
2019-02-18T09:23:47.950Z,9.77
2019-02-18T09:26:39.765Z,10.23
2019-02-18T09:29:39.946Z,10.17
2019-02-18T09:32:29.945Z,9.60
2019-02-18T09:35:02.445Z,8.93
2019-02-18T09:40:50.713Z,12.83
2019-02-18T09:43:37.690Z,8.73
2019-02-18T09:46:30.129Z,9.00
2019-02-18T09:49:00.786Z,8.47
2019-02-18T09:51:45.008Z,6.10
2019-02-18T09:54:24.012Z,11.17
2019-02-18T09:56:54.609Z,6.87
2019-02-18T09:59:44.240Z,6.73
2019-02-18T10:02:14.831Z,6.30
2019-02-18T10:04:57.239Z,7.70
2019-02-18T10:07:55.751Z,7.63
2019-02-18T10:10:26.305Z,6.77
2019-02-18T10:13:18.859Z,7.77
2019-02-18T10:15:49.542Z,6.53
2019-02-18T10:18:22.458Z,7.57
2019-02-18T10:32:57.435Z,5.57
2019-02-18T10:35:47.051Z,5.30
2019-02-18T10:38:40.249Z,6.43
2019-02-18T10:41:19.169Z,6.57
2019-02-18T10:51:10.538Z,7.23
2019-02-18T10:54:31.605Z,5.13
2019-02-18T10:57:39.841Z,5.23
2019-02-18T11:00:11.827Z,4.77
2019-02-18T11:02:42.284Z,4.53
2019-02-18T11:05:24.258Z,5.60
2019-02-18T11:08:06.526Z,5.37
2019-02-18T11:10:40.061Z,4.73
2019-02-18T11:16:22.909Z,5.77
2019-02-18T11:18:53.486Z,4.60
2019-02-18T11:21:24.798Z,4.73
2019-02-18T11:24:06.972Z,4.97
2019-02-18T11:26:48.551Z,4.00
2019-02-18T11:29:57.912Z,4.93
2019-02-18T11:35:37.303Z,4.27
2019-02-18T11:38:10.093Z,4.80
2019-02-18T11:41:01.539Z,5.20
2019-02-18T11:43:34.116Z,5.57
2019-02-18T11:46:04.468Z,3.87
2019-02-18T11:49:14.626Z,3.90
2019-02-18T11:51:44.920Z,6.43
2019-02-18T11:54:15.222Z,4.40
2019-02-18T11:56:57.587Z,5.60
2019-02-18T11:59:39.487Z,3.70
2019-02-18T12:02:09.783Z,4.57
2019-02-18T12:05:20.201Z,3.67
2019-02-18T12:08:11.761Z,4.03
2019-02-18T12:11:01.200Z,3.70
2019-02-18T12:13:52.980Z,3.73
2019-02-18T12:17:20.498Z,3.77
2019-02-18T12:19:49.359Z,4.77
2019-02-18T12:22:31.286Z,4.10
2019-02-18T12:25:13.678Z,3.60
2019-02-18T12:33:22.257Z,2.70
2019-02-18T12:35:54.209Z,2.83
2019-02-18T12:38:36.258Z,4.03
2019-02-18T12:41:08.565Z,3.50
2019-02-18T12:50:09.807Z,5.57
2019-02-18T12:52:52.255Z,5.70
2019-02-18T12:55:25.817Z,3.67
2019-02-18T12:58:15.619Z,5.27
2019-02-18T13:03:49.856Z,5.07
2019-02-18T13:06:32.148Z,5.57
2019-02-18T13:09:21.300Z,6.30
2019-02-18T13:14:54.107Z,6.00
2019-02-18T13:17:46.145Z,5.90
2019-02-18T13:20:18.307Z,5.53
2019-02-18T13:22:59.991Z,5.73
2019-02-18T13:25:47.457Z,6.00
2019-02-18T13:28:14.206Z,7.50
2019-02-18T13:30:46.577Z,6.43
2019-02-18T13:33:48.842Z,7.40
2019-02-18T13:36:15.551Z,7.70
2019-02-18T13:39:05.477Z,7.70
2019-02-18T13:41:46.318Z,6.27
2019-02-18T13:47:25.347Z,5.60
2019-02-18T13:50:16.863Z,6.00
2019-02-18T13:52:47.143Z,6.03
2019-02-18T13:55:29.409Z,7.63
2019-02-18T13:58:18.769Z,6.20
2019-02-18T14:01:10.442Z,5.37
2019-02-18T14:03:40.827Z,6.40
2019-02-18T14:06:11.088Z,6.27
2019-02-18T14:08:41.368Z,6.40
2019-02-18T14:11:26.816Z,7.10
2019-02-18T14:13:57.335Z,6.60
2019-02-18T14:17:24.642Z,6.00
2019-02-18T14:23:25.910Z,7.77
2019-02-18T14:26:15.275Z,7.27
2019-02-18T14:28:49.981Z,7.80
2019-02-18T14:31:20.260Z,8.03
2019-02-18T14:33:52.132Z,6.47
2019-02-18T14:36:22.452Z,6.63
2019-02-18T14:39:02.328Z,6.37
2019-02-18T14:44:36.730Z,5.90
2019-02-18T14:47:21.151Z,5.77
2019-02-18T14:49:53.583Z,6.27
2019-02-18T14:55:34.102Z,7.33
2019-02-18T14:58:07.662Z,6.27
2019-02-18T15:00:37.974Z,7.13
2019-02-18T15:03:32.254Z,7.07
2019-02-18T15:06:15.625Z,6.23
2019-02-18T15:15:14.887Z,7.33
2019-02-18T15:17:45.184Z,5.13
2019-02-18T15:20:15.506Z,6.90
2019-02-18T15:26:32.560Z,8.27
2019-02-18T15:35:45.203Z,6.57
2019-02-18T15:38:17.177Z,6.07
2019-02-18T15:40:48.487Z,5.63
2019-02-18T15:43:20.124Z,6.00
2019-02-18T15:46:02.143Z,7.67
2019-02-18T15:55:12.828Z,5.37
2019-02-18T15:57:44.106Z,7.97
2019-02-18T16:00:35.370Z,6.03
2019-02-18T16:03:05.743Z,8.80
2019-02-18T16:11:53.377Z,5.03
2019-02-18T16:14:23.784Z,5.83
2019-02-18T16:16:56.156Z,5.70
2019-02-18T16:23:04.411Z,7.43
2019-02-18T16:28:56.380Z,6.90
2019-02-18T16:34:46.209Z,5.93
2019-02-18T16:37:35.755Z,8.33
2019-02-18T16:40:28.366Z,8.83
2019-02-18T16:45:55.330Z,5.33
2019-02-18T16:48:54.101Z,4.63
2019-02-18T16:51:24.318Z,7.10
2019-02-18T16:54:06.763Z,6.43
2019-02-18T16:56:49.876Z,6.93
2019-02-18T17:05:41.240Z,6.47
2019-02-18T17:12:12.163Z,6.27
2019-02-18T17:14:26.264Z,6.53
2019-02-18T17:16:58.972Z,9.30
2019-02-18T17:19:41.143Z,7.77
2019-02-18T17:22:23.404Z,8.63
2019-02-18T17:27:48.464Z,7.00
2019-02-18T17:30:30.713Z,7.77
2019-02-18T17:33:32.552Z,7.23
2019-02-18T17:38:50.445Z,6.57
2019-02-18T17:44:10.076Z,6.97
2019-02-18T17:52:25.801Z,6.23
2019-02-18T17:55:48.339Z,9.70
2019-02-18T18:01:42.352Z,8.67
2019-02-18T18:07:28.039Z,6.27
2019-02-18T18:10:31.311Z,6.63
2019-02-18T18:13:00.098Z,6.07
2019-02-18T18:15:43.631Z,6.37
2019-02-18T18:18:14.188Z,6.43
2019-02-18T18:29:50.100Z,8.70
2019-02-18T18:32:23.087Z,7.20
2019-02-18T18:38:23.691Z,7.57
2019-02-18T18:41:13.298Z,7.37
2019-02-18T18:44:02.681Z,10.80
2019-02-18T18:46:50.466Z,8.00
2019-02-18T18:49:28.102Z,6.57
2019-02-18T18:51:58.419Z,7.10
2019-02-18T18:54:40.372Z,5.93
2019-02-18T18:57:22.523Z,6.93
2019-02-18T19:02:57.789Z,5.70
2019-02-18T19:05:39.783Z,7.80
2019-02-18T19:08:16.505Z,6.30
2019-02-18T19:11:08.462Z,9.87
2019-02-18T19:17:27.177Z,6.60
2019-02-18T19:20:00.354Z,6.67
2019-02-18T19:22:57.504Z,7.57
2019-02-18T19:29:21.588Z,6.67
2019-02-18T19:32:24.304Z,10.70
2019-02-18T19:35:07.372Z,7.37
2019-02-18T19:38:15.957Z,8.77
2019-02-18T19:44:14.098Z,7.67
2019-02-18T19:47:37.272Z,8.17
2019-02-18T19:50:21.002Z,7.03
2019-02-18T19:52:52.889Z,6.07
2019-02-18T19:55:46.274Z,5.97
2019-02-18T19:58:25.669Z,5.77
2019-02-18T20:01:15.312Z,6.03
2019-02-18T20:04:32.240Z,6.70
2019-02-18T20:09:50.808Z,6.17
2019-02-18T20:12:40.445Z,6.00
2019-02-18T20:24:49.339Z,14.70
2019-02-18T20:28:11.465Z,15.10
2019-02-18T20:30:59.245Z,14.80
2019-02-18T20:33:30.384Z,16.57
2019-02-18T20:36:10.358Z,13.50
2019-02-18T20:38:42.705Z,12.57
2019-02-18T20:41:13.069Z,8.73
2019-02-18T20:44:07.475Z,11.73
2019-02-18T20:46:42.061Z,8.10
2019-02-18T20:49:35.284Z,8.83
2019-02-18T20:54:53.994Z,7.87
2019-02-18T20:57:36.850Z,6.60
2019-02-18T21:00:12.696Z,7.80
2019-02-18T21:06:11.955Z,6.70
2019-02-18T21:08:42.284Z,7.63
2019-02-18T21:11:15.006Z,6.33
2019-02-18T21:13:58.154Z,9.17
2019-02-18T21:16:49.601Z,8.17
2019-02-18T21:22:01.438Z,6.27
2019-02-18T21:27:36.378Z,6.17
2019-02-18T21:30:09.753Z,6.20
2019-02-18T21:33:13.783Z,7.23
2019-02-18T21:39:21.750Z,7.83
2019-02-18T21:41:52.290Z,8.60
2019-02-18T21:47:56.170Z,8.93
2019-02-18T21:53:29.713Z,8.37
2019-02-18T21:56:14.459Z,9.53
2019-02-18T21:59:06.849Z,7.97
2019-02-18T22:01:48.161Z,10.47
2019-02-18T22:04:37.493Z,10.03
2019-02-18T22:07:07.807Z,9.73
2019-02-18T22:09:57.170Z,10.00
2019-02-18T22:12:29.877Z,11.73
2019-02-18T22:15:19.273Z,11.93
2019-02-18T22:18:46.950Z,9.13
2019-02-18T22:21:17.258Z,10.50
2019-02-18T22:23:59.253Z,9.87
2019-02-18T22:26:44.076Z,10.80
2019-02-18T22:29:50.130Z,10.17
2019-02-18T22:32:31.036Z,11.63
2019-02-18T22:35:02.385Z,10.77
2019-02-18T22:37:45.290Z,9.00
2019-02-18T22:40:15.597Z,9.00
2019-02-18T22:43:05.192Z,7.83
2019-02-18T22:45:35.439Z,9.57
2019-02-18T22:48:05.718Z,8.10
2019-02-18T22:50:35.964Z,8.80
2019-02-18T22:53:17.563Z,13.90
2019-02-18T22:56:02.839Z,9.53
2019-02-18T23:07:27.626Z,11.90
2019-02-18T23:10:17.155Z,9.40
2019-02-18T23:12:49.104Z,9.73
2019-02-18T23:15:31.442Z,10.73
2019-02-18T23:18:14.122Z,8.53
2019-02-18T23:23:27.175Z,9.93
2019-02-18T23:26:09.278Z,9.40
2019-02-18T23:31:33.114Z,11.03
2019-02-18T23:34:10.600Z,11.17
2019-02-18T23:36:41.265Z,13.57
2019-02-18T23:39:11.463Z,9.23
2019-02-18T23:45:34.101Z,9.70
2019-02-18T23:53:56.479Z,9.37
2019-02-18T23:56:39.007Z,7.67
2019-02-18T23:59:21.178Z,8.40
